Time,TemperatureF,DewpointF,PressureIn,WindDirection,WindDirectionDegrees,WindSpeedMPH,WindSpeedGustMPH,Humidity,HourlyPrecipIn,Conditions,Clouds,dailyrainin,SoftwareType,DateUTC
2013-09-19 00:01:00,64.0,61.0,30.17,NNE,26,0.0,0.0,91,0.00,,,0.00,weatherlink.com 1.10,2013-09-19 04:01:00,
2013-09-19 00:16:00,63.2,61.0,30.17,NNE,26,0.0,0.0,92,0.00,,,0.00,weatherlink.com 1.10,2013-09-19 04:16:00,
2013-09-19 00:31:00,62.7,60.0,30.16,NNE,26,0.0,0.0,92,0.00,,,0.00,weatherlink.com 1.10,2013-09-19 04:31:00,
2013-09-19 00:46:00,62.7,61.0,30.16,NNE,26,0.0,0.0,93,0.00,,,0.00,weatherlink.com 1.10,2013-09-19 04:46:00,
2013-09-19 01:01:00,62.7,61.0,30.16,NNE,26,0.0,0.0,93,0.00,,,0.00,weatherlink.com 1.10,2013-09-19 05:01:00,
2013-09-19 01:16:00,62.7,61.0,30.16,NNE,26,0.0,0.0,94,0.00,,,0.00,weatherlink.com 1.10,2013-09-19 05:16:00,
2013-09-19 01:31:00,63.0,61.0,30.15,NNE,26,0.0,0.0,93,0.00,,,0.00,weatherlink.com 1.10,2013-09-19 05:31:00,
2013-09-19 01:46:00,62.9,61.0,30.15,NNE,26,0.0,0.0,93,0.00,,,0.00,weatherlink.com 1.10,2013-09-19 05:46:00,
2013-09-19 02:01:00,62.0,60.0,30.16,NNE,26,0.0,0.0,94,0.00,,,0.00,weatherlink.com 1.10,2013-09-19 06:01:00,
2013-09-19 02:16:00,61.3,60.0,30.16,NNE,26,0.0,0.0,94,0.00,,,0.00,weatherlink.com 1.10,2013-09-19 06:16:00,
2013-09-19 02:31:00,61.4,60.0,30.15,NNE,26,0.0,0.0,95,0.00,,,0.00,weatherlink.com 1.10,2013-09-19 06:31:00,
2013-09-19 02:46:00,61.0,60.0,30.15,NNE,26,0.0,0.0,95,0.00,,,0.00,weatherlink.com 1.10,2013-09-19 06:46:00,
2013-09-19 03:01:00,60.8,59.0,30.15,NNE,26,0.0,0.0,95,0.00,,,0.00,weatherlink.com 1.10,2013-09-19 07:01:00,
2013-09-19 03:16:00,60.7,59.0,30.15,NNE,26,0.0,0.0,94,0.00,,,0.00,weatherlink.com 1.10,2013-09-19 07:16:00,
2013-09-19 03:31:00,60.8,59.0,30.14,NNE,26,0.0,0.0,95,0.00,,,0.00,weatherlink.com 1.10,2013-09-19 07:31:00,
2013-09-19 03:46:00,60.5,59.0,30.14,NNE,26,0.0,0.0,94,0.00,,,0.00,weatherlink.com 1.10,2013-09-19 07:46:00,
2013-09-19 04:01:00,60.1,59.0,30.14,NNE,26,0.0,0.0,95,0.00,,,0.00,weatherlink.com 1.10,2013-09-19 08:01:00,
2013-09-19 04:16:00,59.8,58.0,30.14,NNE,26,0.0,0.0,95,0.00,,,0.00,weatherlink.com 1.10,2013-09-19 08:16:00,
2013-09-19 04:31:00,59.6,58.0,30.14,NNE,26,0.0,0.0,95,0.00,,,0.00,weatherlink.com 1.10,2013-09-19 08:31:00,
2013-09-19 04:46:00,59.3,58.0,30.14,NNE,26,0.0,0.0,94,0.00,,,0.00,weatherlink.com 1.10,2013-09-19 08:46:00,
2013-09-19 05:01:00,59.3,58.0,30.14,NNE,26,0.0,0.0,94,0.00,,,0.00,weatherlink.com 1.10,2013-09-19 09:01:00,
2013-09-19 05:17:00,59.4,58.0,30.14,NNE,26,0.0,0.0,94,0.00,,,0.00,weatherlink.com 1.10,2013-09-19 09:17:00,
2013-09-19 05:32:00,59.8,58.0,30.14,NNE,26,0.0,0.0,93,0.00,,,0.00,weatherlink.com 1.10,2013-09-19 09:32:00,
2013-09-19 05:47:00,60.5,59.0,30.14,NNE,26,0.0,0.0,94,0.00,,,0.00,weatherlink.com 1.10,2013-09-19 09:47:00,
2013-09-19 06:02:00,60.9,59.0,30.14,NNE,26,0.0,0.0,94,0.00,,,0.00,weatherlink.com 1.10,2013-09-19 10:02:00,
2013-09-19 06:17:00,61.2,60.0,30.14,NNE,26,0.0,0.0,94,0.00,,,0.00,weatherlink.com 1.10,2013-09-19 10:17:00,
2013-09-19 06:32:00,61.4,60.0,30.14,NNE,26,0.0,0.0,94,0.00,,,0.00,weatherlink.com 1.10,2013-09-19 10:32:00,
2013-09-19 06:47:00,61.6,60.0,30.14,NNE,26,0.0,0.0,94,0.00,,,0.00,weatherlink.com 1.10,2013-09-19 10:47:00,
2013-09-19 07:02:00,61.7,60.0,30.14,NNE,26,0.0,0.0,95,0.00,,,0.00,weatherlink.com 1.10,2013-09-19 11:02:00,
2013-09-19 07:17:00,61.7,60.0,30.14,NNE,26,0.0,0.0,95,0.00,,,0.00,weatherlink.com 1.10,2013-09-19 11:17:00,
2013-09-19 07:32:00,61.9,61.0,30.15,NNE,26,0.0,0.0,95,0.00,,,0.00,weatherlink.com 1.10,2013-09-19 11:32:00,
2013-09-19 07:47:00,61.9,61.0,30.15,NNE,26,0.0,0.0,95,0.00,,,0.00,weatherlink.com 1.10,2013-09-19 11:47:00,
2013-09-19 08:02:00,62.2,61.0,30.15,NNE,26,0.0,0.0,95,0.00,,,0.00,weatherlink.com 1.10,2013-09-19 12:02:00,
2013-09-19 08:17:00,62.9,62.0,30.16,NNE,26,0.0,0.0,95,0.00,,,0.00,weatherlink.com 1.10,2013-09-19 12:17:00,
2013-09-19 08:32:00,63.6,62.0,30.16,NNE,26,0.0,0.0,93,0.00,,,0.00,weatherlink.com 1.10,2013-09-19 12:32:00,
2013-09-19 08:47:00,63.9,62.0,30.16,NNE,26,0.0,0.0,94,0.00,,,0.00,weatherlink.com 1.10,2013-09-19 12:47:00,
2013-09-19 09:02:00,63.7,61.0,30.16,NNE,26,0.0,0.0,92,0.00,,,0.00,weatherlink.com 1.10,2013-09-19 13:02:00,
2013-09-19 09:17:00,64.0,62.0,30.16,NNE,26,0.0,0.0,92,0.00,,,0.00,weatherlink.com 1.10,2013-09-19 13:17:00,
2013-09-19 09:32:00,64.4,58.0,30.17,South,185,0.0,0.0,81,0.00,,,0.00,weatherlink.com 1.10,2013-09-19 13:32:00,
2013-09-19 09:47:00,64.8,59.0,30.17,ESE,115,0.0,0.0,81,0.00,,,0.00,weatherlink.com 1.10,2013-09-19 13:47:00,
2013-09-19 10:02:00,67.2,61.0,30.17,WSW,258,0.0,0.0,79,0.00,,,0.00,weatherlink.com 1.10,2013-09-19 14:02:00,
2013-09-19 10:17:00,67.6,61.0,30.17,WSW,258,0.0,0.0,78,0.00,,,0.00,weatherlink.com 1.10,2013-09-19 14:17:00,
2013-09-19 10:32:00,68.4,61.0,30.17,SE,141,0.0,0.0,77,0.00,,,0.00,weatherlink.com 1.10,2013-09-19 14:32:00,
2013-09-19 10:47:00,69.0,61.0,30.17,East,98,0.0,0.0,76,0.00,,,0.00,weatherlink.com 1.10,2013-09-19 14:47:00,
2013-09-19 11:02:00,70.4,61.0,30.17,West,267,0.0,1.0,72,0.00,,,0.00,weatherlink.com 1.10,2013-09-19 15:02:00,
2013-09-19 11:17:00,71.5,61.0,30.16,WNW,282,0.0,1.0,69,0.00,,,0.00,weatherlink.com 1.10,2013-09-19 15:17:00,
2013-09-19 11:32:00,72.1,63.0,30.17,SW,232,0.0,6.0,73,0.00,,,0.00,weatherlink.com 1.10,2013-09-19 15:32:00,
2013-09-19 11:47:00,72.0,62.0,30.16,North,355,2.0,5.0,71,0.00,,,0.00,weatherlink.com 1.10,2013-09-19 15:47:00,
2013-09-19 12:02:00,72.9,62.0,30.16,NNW,337,3.0,6.0,68,0.00,,,0.00,weatherlink.com 1.10,2013-09-19 16:02:00,
2013-09-19 12:17:00,73.0,61.0,30.16,West,271,2.0,4.0,66,0.00,,,0.00,weatherlink.com 1.10,2013-09-19 16:17:00,
2013-09-19 12:33:00,73.3,62.0,30.15,West,261,0.0,5.0,67,0.00,,,0.00,weatherlink.com 1.10,2013-09-19 16:33:00,
2013-09-19 13:02:00,74.6,65.0,30.14,North,355,1.0,5.0,71,0.00,,,0.00,weatherlink.com 1.10,2013-09-19 17:02:00,
2013-09-19 13:17:00,75.8,64.0,30.13,NNW,334,4.0,6.0,67,0.00,,,0.00,weatherlink.com 1.10,2013-09-19 17:17:00,
2013-09-19 13:32:00,75.9,64.0,30.13,West,274,1.0,3.0,67,0.00,,,0.00,weatherlink.com 1.10,2013-09-19 17:32:00,
2013-09-19 13:47:00,75.8,65.0,30.12,NW,317,0.0,6.0,69,0.00,,,0.00,weatherlink.com 1.10,2013-09-19 17:47:00,
2013-09-19 14:02:00,75.8,63.0,30.12,North,5,0.0,4.0,65,0.00,,,0.00,weatherlink.com 1.10,2013-09-19 18:02:00,
2013-09-19 14:17:00,76.5,64.0,30.11,NW,309,3.0,5.0,65,0.00,,,0.00,weatherlink.com 1.10,2013-09-19 18:17:00,
2013-09-19 14:32:00,77.2,66.0,30.11,NW,316,4.0,6.0,68,0.00,,,0.00,weatherlink.com 1.10,2013-09-19 18:32:00,
2013-09-19 14:47:00,77.5,66.0,30.10,ENE,59,2.0,3.0,67,0.00,,,0.00,weatherlink.com 1.10,2013-09-19 18:47:00,
2013-09-19 15:02:00,78.7,65.0,30.09,WSW,240,1.0,7.0,64,0.00,,,0.00,weatherlink.com 1.10,2013-09-19 19:02:00,
2013-09-19 15:18:00,78.5,65.0,30.08,WSW,251,3.0,4.0,64,0.00,,,0.00,weatherlink.com 1.10,2013-09-19 19:18:00,
2013-09-19 15:33:00,79.2,66.0,30.08,NW,308,2.0,3.0,65,0.00,,,0.00,weatherlink.com 1.10,2013-09-19 19:33:00,
2013-09-19 15:48:00,79.4,65.0,30.07,WNW,297,0.0,4.0,62,0.00,,,0.00,weatherlink.com 1.10,2013-09-19 19:48:00,
2013-09-19 16:03:00,79.6,65.0,30.07,NW,323,3.0,4.0,62,0.00,,,0.00,weatherlink.com 1.10,2013-09-19 20:03:00,
2013-09-19 16:18:00,79.2,65.0,30.07,NW,326,1.0,3.0,62,0.00,,,0.00,weatherlink.com 1.10,2013-09-19 20:18:00,
2013-09-19 16:33:00,79.6,67.0,30.07,West,281,3.0,5.0,65,0.00,,,0.00,weatherlink.com 1.10,2013-09-19 20:33:00,
2013-09-19 16:48:00,78.0,66.0,30.07,SSE,167,1.0,3.0,67,0.00,,,0.00,weatherlink.com 1.10,2013-09-19 20:48:00,
2013-09-19 17:03:00,78.4,69.0,30.07,East,80,0.0,2.0,72,0.00,,,0.00,weatherlink.com 1.10,2013-09-19 21:03:00,
2013-09-19 17:18:00,79.3,68.0,30.07,SSE,161,0.0,4.0,68,0.00,,,0.00,weatherlink.com 1.10,2013-09-19 21:18:00,
2013-09-19 17:33:00,78.5,68.0,30.07,South,172,1.0,3.0,69,0.00,,,0.00,weatherlink.com 1.10,2013-09-19 21:33:00,
2013-09-19 17:48:00,77.5,68.0,30.06,SSW,197,2.0,2.0,73,0.00,,,0.00,weatherlink.com 1.10,2013-09-19 21:48:00,
2013-09-19 18:03:00,76.9,67.0,30.06,SSW,199,0.0,0.0,72,0.00,,,0.00,weatherlink.com 1.10,2013-09-19 22:03:00,
2013-09-19 18:18:00,75.8,68.0,30.06,South,180,1.0,2.0,76,0.00,,,0.00,weatherlink.com 1.10,2013-09-19 22:18:00,
2013-09-19 18:33:00,74.8,68.0,30.06,SSE,166,0.0,0.0,78,0.00,,,0.00,weatherlink.com 1.10,2013-09-19 22:33:00,
2013-09-19 18:48:00,73.4,68.0,30.06,SSE,166,0.0,0.0,82,0.00,,,0.00,weatherlink.com 1.10,2013-09-19 22:48:00,
2013-09-19 19:03:00,72.5,68.0,30.06,SSE,166,0.0,0.0,85,0.00,,,0.00,weatherlink.com 1.10,2013-09-19 23:03:00,
2013-09-19 19:18:00,71.6,68.0,30.06,SSE,166,0.0,0.0,87,0.00,,,0.00,weatherlink.com 1.10,2013-09-19 23:18:00,
2013-09-19 19:33:00,70.7,67.0,30.06,SSE,166,0.0,0.0,88,0.00,,,0.00,weatherlink.com 1.10,2013-09-19 23:33:00,
2013-09-19 19:48:00,70.3,67.0,30.06,SSE,166,0.0,0.0,89,0.00,,,0.00,weatherlink.com 1.10,2013-09-19 23:48:00,
2013-09-19 20:03:00,69.5,66.0,30.06,SSE,166,0.0,0.0,89,0.00,,,0.00,weatherlink.com 1.10,2013-09-20 00:03:00,
2013-09-19 20:18:00,68.8,66.0,30.06,SSE,166,0.0,0.0,90,0.00,,,0.00,weatherlink.com 1.10,2013-09-20 00:18:00,
2013-09-19 20:33:00,68.4,66.0,30.07,SSE,166,0.0,0.0,91,0.00,,,0.00,weatherlink.com 1.10,2013-09-20 00:33:00,
2013-09-19 20:48:00,67.8,66.0,30.07,SSE,166,0.0,0.0,92,0.00,,,0.00,weatherlink.com 1.10,2013-09-20 00:48:00,
2013-09-19 21:03:00,67.4,65.0,30.06,SSE,166,0.0,0.0,91,0.00,,,0.00,weatherlink.com 1.10,2013-09-20 01:03:00,
2013-09-19 21:18:00,67.0,65.0,30.06,SSE,166,0.0,0.0,92,0.00,,,0.00,weatherlink.com 1.10,2013-09-20 01:18:00,
2013-09-19 21:33:00,66.7,64.0,30.06,SSE,166,0.0,0.0,92,0.00,,,0.00,weatherlink.com 1.10,2013-09-20 01:33:00,
2013-09-19 21:48:00,66.5,64.0,30.07,SSE,166,0.0,0.0,91,0.00,,,0.00,weatherlink.com 1.10,2013-09-20 01:48:00,
2013-09-19 22:03:00,65.8,64.0,30.07,SSE,166,0.0,0.0,92,0.00,,,0.00,weatherlink.com 1.10,2013-09-20 02:03:00,
2013-09-19 22:18:00,65.5,63.0,30.07,SSE,166,0.0,0.0,92,0.00,,,0.00,weatherlink.com 1.10,2013-09-20 02:18:00,
2013-09-19 22:33:00,65.0,63.0,30.07,SSE,166,0.0,0.0,93,0.00,,,0.00,weatherlink.com 1.10,2013-09-20 02:33:00,
2013-09-19 22:48:00,64.7,63.0,30.07,SSE,166,0.0,0.0,93,0.00,,,0.00,weatherlink.com 1.10,2013-09-20 02:48:00,
2013-09-19 23:03:00,64.5,63.0,30.07,SSE,166,0.0,1.0,94,0.00,,,0.00,weatherlink.com 1.10,2013-09-20 03:03:00,
2013-09-19 23:18:00,64.4,63.0,30.07,SSE,166,0.0,0.0,94,0.00,,,0.00,weatherlink.com 1.10,2013-09-20 03:18:00,
2013-09-19 23:33:00,65.3,64.0,30.06,SSE,166,0.0,0.0,94,0.00,,,0.00,weatherlink.com 1.10,2013-09-20 03:33:00,
2013-09-19 23:48:00,65.4,64.0,30.06,SSE,166,0.0,0.0,94,0.00,,,0.00,weatherlink.com 1.10,2013-09-20 03:48:00,